createdAt,value
2018-12-19T00:00:35.532Z,0.65
2018-12-19T00:01:35.521Z,0.65
2018-12-19T00:02:35.509Z,0.64
2018-12-19T00:03:35.498Z,0.68
2018-12-19T00:04:35.491Z,0.71
2018-12-19T00:05:35.476Z,0.72
2018-12-19T00:06:35.466Z,0.64
2018-12-19T00:07:35.456Z,0.62
2018-12-19T00:08:35.444Z,0.67
2018-12-19T00:09:35.436Z,0.67
2018-12-19T00:10:35.421Z,0.67
2018-12-19T00:11:35.410Z,0.68
2018-12-19T00:12:35.400Z,0.62
2018-12-19T00:13:35.392Z,0.68
2018-12-19T00:14:35.376Z,0.68
2018-12-19T00:15:35.367Z,0.67
2018-12-19T00:16:35.358Z,0.65
2018-12-19T00:17:35.347Z,0.70
2018-12-19T00:18:35.334Z,0.67
2018-12-19T00:19:35.321Z,0.71
2018-12-19T00:20:35.313Z,0.68
2018-12-19T00:21:35.304Z,0.67
2018-12-19T00:22:35.290Z,0.76
2018-12-19T00:23:35.282Z,0.71
2018-12-19T00:24:35.267Z,0.67
2018-12-19T00:25:35.258Z,0.76
2018-12-19T00:26:35.248Z,0.76
2018-12-19T00:27:35.233Z,0.78
2018-12-19T00:28:35.224Z,0.78
2018-12-19T00:29:35.213Z,0.70
2018-12-19T00:30:35.202Z,0.70
2018-12-19T00:31:35.190Z,0.78
2018-12-19T00:32:35.254Z,0.79
2018-12-19T00:33:35.169Z,0.78
2018-12-19T00:34:35.161Z,0.78
2018-12-19T00:35:35.145Z,0.80
2018-12-19T00:36:35.139Z,0.82
2018-12-19T00:37:35.123Z,0.70
2018-12-19T00:38:35.116Z,0.71
2018-12-19T00:39:35.101Z,0.78
2018-12-19T00:40:35.097Z,0.68
2018-12-19T00:41:35.083Z,0.67
2018-12-19T00:42:35.070Z,0.65
2018-12-19T00:43:35.059Z,0.68
2018-12-19T00:44:35.048Z,0.68
2018-12-19T00:45:35.041Z,0.67
2018-12-19T00:46:35.026Z,0.70
2018-12-19T00:47:35.013Z,0.78
2018-12-19T00:48:35.007Z,0.70
2018-12-19T00:49:34.995Z,0.65
2018-12-19T00:50:34.981Z,0.72
2018-12-19T00:51:34.973Z,0.72
2018-12-19T00:52:34.959Z,0.67
2018-12-19T00:53:34.947Z,0.70
2018-12-19T00:54:34.939Z,0.64
2018-12-19T00:55:34.924Z,0.70
2018-12-19T00:56:34.917Z,0.72
2018-12-19T00:57:34.904Z,0.70
2018-12-19T00:58:34.894Z,0.62
2018-12-19T00:59:34.886Z,0.64
2018-12-19T01:00:34.871Z,0.58
2018-12-19T01:01:34.861Z,0.58
2018-12-19T01:02:34.848Z,0.58
2018-12-19T01:03:34.839Z,0.61
2018-12-19T01:04:34.837Z,0.58
2018-12-19T01:05:34.816Z,0.61
2018-12-19T01:06:34.806Z,0.61
2018-12-19T01:07:34.794Z,0.58
2018-12-19T01:08:34.783Z,0.62
2018-12-19T01:09:34.772Z,0.57
2018-12-19T01:10:34.761Z,0.51
2018-12-19T01:11:34.751Z,0.46
2018-12-19T01:12:34.737Z,0.43
2018-12-19T01:13:34.727Z,0.43
2018-12-19T01:14:34.715Z,0.43
2018-12-19T01:15:34.705Z,0.48
2018-12-19T01:16:34.695Z,0.48
2018-12-19T01:17:34.683Z,0.43
2018-12-19T01:18:34.677Z,0.49
2018-12-19T01:19:34.661Z,0.49
2018-12-19T01:20:34.650Z,0.51
2018-12-19T01:21:34.639Z,0.51
2018-12-19T01:22:34.628Z,0.43
2018-12-19T01:23:34.620Z,0.46
2018-12-19T01:24:34.606Z,0.46
2018-12-19T01:25:34.595Z,0.42
2018-12-19T01:26:34.586Z,0.41
2018-12-19T01:27:34.573Z,0.33
2018-12-19T01:28:34.565Z,0.46
2018-12-19T01:29:34.601Z,0.46
2018-12-19T01:30:34.543Z,0.42
2018-12-19T01:31:34.530Z,0.31
2018-12-19T01:32:34.517Z,0.46
2018-12-19T01:33:34.511Z,0.42
2018-12-19T01:34:34.498Z,0.33
2018-12-19T01:35:34.488Z,0.31
2018-12-19T01:36:34.476Z,0.25
2018-12-19T01:37:34.467Z,0.34
2018-12-19T01:38:34.458Z,0.39
2018-12-19T01:39:34.442Z,0.33
2018-12-19T01:40:34.431Z,0.34
2018-12-19T01:41:34.419Z,0.30
2018-12-19T01:42:34.408Z,0.36
2018-12-19T01:43:34.395Z,0.46
2018-12-19T01:44:34.388Z,0.38
2018-12-19T01:45:34.379Z,0.30
2018-12-19T01:46:34.366Z,0.25
2018-12-19T01:47:34.353Z,0.15
2018-12-19T01:48:34.341Z,0.27
2018-12-19T01:49:34.330Z,0.23
2018-12-19T01:50:34.323Z,0.28
2018-12-19T01:51:34.309Z,0.16
2018-12-19T01:52:34.297Z,0.20
2018-12-19T01:53:34.290Z,0.20
2018-12-19T01:54:34.276Z,0.20
2018-12-19T01:55:34.267Z,0.16
2018-12-19T01:56:34.253Z,0.16
2018-12-19T01:57:34.247Z,0.12
2018-12-19T01:58:34.232Z,0.09
2018-12-19T01:59:34.222Z,0.13
2018-12-19T02:00:34.210Z,0.07
2018-12-19T02:01:34.201Z,0.13
2018-12-19T02:02:34.193Z,0.09
2018-12-19T02:03:34.180Z,0.05
2018-12-19T02:04:34.166Z,0.18
2018-12-19T02:05:34.155Z,0.06
2018-12-19T02:06:34.146Z,0.06
2018-12-19T02:07:34.136Z,0.05
2018-12-19T02:08:34.127Z,0.05
2018-12-19T02:09:34.115Z,-0.01
2018-12-19T02:10:34.104Z,0.05
2018-12-19T02:11:34.090Z,-0.05
2018-12-19T02:12:34.080Z,0.10
2018-12-19T02:13:34.069Z,0.06
2018-12-19T02:14:34.057Z,0.06
2018-12-19T02:15:34.050Z,-0.04
2018-12-19T02:16:34.034Z,0.10
2018-12-19T02:17:34.024Z,0.10
2018-12-19T02:18:34.013Z,0.00
2018-12-19T02:19:34.053Z,0.06
2018-12-19T02:20:33.991Z,0.05
2018-12-19T02:21:33.978Z,0.09
2018-12-19T02:22:33.969Z,0.06
2018-12-19T02:23:33.957Z,0.06
2018-12-19T02:24:33.945Z,0.09
2018-12-19T02:25:33.937Z,0.00
2018-12-19T02:26:33.925Z,0.00
2018-12-19T02:27:33.916Z,0.00
2018-12-19T02:28:33.903Z,0.05
2018-12-19T02:29:33.891Z,0.00
2018-12-19T02:30:33.880Z,0.02
2018-12-19T02:31:33.870Z,0.02
2018-12-19T02:32:33.859Z,0.09
2018-12-19T02:33:33.847Z,-0.04
2018-12-19T02:34:33.838Z,0.07
2018-12-19T02:35:33.825Z,-0.05
2018-12-19T02:36:33.815Z,0.06
2018-12-19T02:37:33.802Z,0.05
2018-12-19T02:38:33.792Z,0.13
2018-12-19T02:39:36.340Z,0.00
2018-12-19T02:40:33.771Z,0.09
2018-12-19T02:41:33.760Z,0.00
2018-12-19T02:42:33.755Z,0.03
2018-12-19T02:43:33.741Z,0.02
2018-12-19T02:44:33.737Z,0.00
2018-12-19T02:45:33.719Z,0.02
2018-12-19T02:46:33.714Z,0.05
2018-12-19T02:47:33.695Z,0.06
2018-12-19T02:48:33.686Z,0.09
2018-12-19T02:49:33.671Z,0.10
2018-12-19T02:50:33.663Z,0.13
2018-12-19T02:51:33.653Z,0.06
2018-12-19T02:52:33.651Z,0.06
2018-12-19T02:53:33.628Z,0.09
2018-12-19T02:54:33.614Z,0.02
2018-12-19T02:55:33.605Z,-0.04
2018-12-19T02:56:33.593Z,0.09
2018-12-19T02:57:33.582Z,0.03
2018-12-19T02:58:33.581Z,0.10
2018-12-19T02:59:33.561Z,0.16
2018-12-19T03:00:33.557Z,0.05
2018-12-19T03:01:33.538Z,0.10
2018-12-19T03:02:33.528Z,0.06
2018-12-19T03:03:33.515Z,0.02
2018-12-19T03:04:33.507Z,0.15
2018-12-19T03:05:33.497Z,0.12
2018-12-19T03:06:33.486Z,0.09
2018-12-19T03:07:33.473Z,0.09
2018-12-19T03:08:33.463Z,0.05
2018-12-19T03:09:33.451Z,0.09
2018-12-19T03:10:33.442Z,0.10
2018-12-19T03:11:33.431Z,-0.01
2018-12-19T03:12:33.418Z,0.10
2018-12-19T03:13:33.409Z,0.16
2018-12-19T03:14:33.396Z,0.06
2018-12-19T03:15:33.385Z,0.07
2018-12-19T03:16:33.372Z,0.18
2018-12-19T03:17:33.363Z,0.09
2018-12-19T03:18:33.351Z,0.09
2018-12-19T03:19:33.341Z,0.05
2018-12-19T03:20:33.334Z,0.12
2018-12-19T03:21:33.320Z,0.12
2018-12-19T03:22:33.312Z,0.06
2018-12-19T03:23:33.297Z,0.03
2018-12-19T03:24:33.285Z,0.13
2018-12-19T03:25:33.276Z,0.15
2018-12-19T03:26:33.267Z,0.09
2018-12-19T03:27:33.252Z,0.05
2018-12-19T03:28:33.241Z,0.03
2018-12-19T03:29:51.372Z,0.10
2018-12-19T03:31:15.786Z,0.07
2018-12-19T03:33:42.728Z,0.07
2018-12-19T03:34:42.719Z,0.16
2018-12-19T03:36:24.273Z,0.10
2018-12-19T03:37:24.257Z,0.12
2018-12-19T03:39:05.806Z,0.12
2018-12-19T03:40:05.798Z,0.05
2018-12-19T03:41:05.793Z,0.09
2018-12-19T03:42:05.768Z,0.07
2018-12-19T03:43:05.758Z,0.20
2018-12-19T03:44:05.750Z,0.15
2018-12-19T03:45:05.735Z,0.13
2018-12-19T03:46:05.735Z,0.20
2018-12-19T03:47:05.723Z,0.18
2018-12-19T03:48:05.704Z,0.15
2018-12-19T03:49:05.693Z,0.15
2018-12-19T03:50:05.681Z,0.15
2018-12-19T03:51:05.670Z,0.09
2018-12-19T03:52:05.660Z,0.10
2018-12-19T03:53:05.648Z,0.24
2018-12-19T03:54:05.638Z,0.21
2018-12-19T03:55:05.629Z,0.16
2018-12-19T03:56:05.622Z,0.16
2018-12-19T03:57:05.605Z,0.18
2018-12-19T03:58:05.594Z,0.18
2018-12-19T03:59:05.582Z,0.13
2018-12-19T04:00:05.573Z,0.18
2018-12-19T04:01:05.567Z,0.25
2018-12-19T04:02:05.551Z,0.20
2018-12-19T04:03:05.539Z,0.13
2018-12-19T04:04:05.531Z,0.23
2018-12-19T04:05:05.517Z,0.27
2018-12-19T04:06:05.505Z,0.28
2018-12-19T04:07:05.498Z,0.25
2018-12-19T04:08:05.486Z,0.30
2018-12-19T04:09:05.477Z,0.31
2018-12-19T04:10:05.468Z,0.28
2018-12-19T04:11:05.453Z,0.33
2018-12-19T04:12:05.441Z,0.39
2018-12-19T04:13:05.431Z,0.34
2018-12-19T04:14:05.418Z,0.25
2018-12-19T04:15:05.408Z,0.31
2018-12-19T04:16:05.398Z,0.34
2018-12-19T04:17:05.386Z,0.28
2018-12-19T04:18:05.389Z,0.34
2018-12-19T04:19:05.363Z,0.33
2018-12-19T04:20:05.355Z,0.36
2018-12-19T04:21:05.341Z,0.34
2018-12-19T04:22:05.335Z,0.36
2018-12-19T04:23:05.319Z,0.34
2018-12-19T04:24:05.310Z,0.36
2018-12-19T04:25:05.301Z,0.36
2018-12-19T04:26:05.287Z,0.33
2018-12-19T04:27:05.277Z,0.39
2018-12-19T04:28:05.266Z,0.30
2018-12-19T04:29:05.255Z,0.42
2018-12-19T04:30:05.243Z,0.25
2018-12-19T04:31:05.240Z,0.36
2018-12-19T04:32:05.224Z,0.41
2018-12-19T04:33:05.209Z,0.41
2018-12-19T04:34:05.200Z,0.38
2018-12-19T04:35:05.189Z,0.42
2018-12-19T04:36:05.176Z,0.36
2018-12-19T04:37:05.169Z,0.45
2018-12-19T04:38:05.158Z,0.48
2018-12-19T04:39:05.146Z,0.49
2018-12-19T04:40:06.072Z,0.57
2018-12-19T04:41:05.121Z,0.48
2018-12-19T04:42:05.112Z,0.45
2018-12-19T04:43:05.100Z,0.49
2018-12-19T04:44:05.089Z,0.49
2018-12-19T04:45:05.077Z,0.57
2018-12-19T04:46:05.068Z,0.61
2018-12-19T04:47:05.057Z,0.58
2018-12-19T04:48:05.044Z,0.61
2018-12-19T04:49:05.040Z,0.58
2018-12-19T04:50:05.024Z,0.58
2018-12-19T04:51:05.011Z,0.53
2018-12-19T04:52:05.004Z,0.64
2018-12-19T04:53:04.992Z,0.67
2018-12-19T04:54:04.983Z,0.57
2018-12-19T04:55:04.968Z,0.70
2018-12-19T04:56:04.957Z,0.67
2018-12-19T04:57:04.946Z,0.67
2018-12-19T04:58:04.934Z,0.67
2018-12-19T04:59:04.923Z,0.64
2018-12-19T05:00:04.916Z,0.72
2018-12-19T05:01:04.907Z,0.70
2018-12-19T05:02:04.892Z,0.79
2018-12-19T05:03:04.885Z,0.72
2018-12-19T05:04:04.869Z,0.70
2018-12-19T05:05:04.863Z,0.78
2018-12-19T05:06:04.852Z,0.72
2018-12-19T05:07:04.931Z,0.76
2018-12-19T05:08:04.826Z,0.75
2018-12-19T05:09:04.815Z,0.79
2018-12-19T05:10:04.803Z,0.72
2018-12-19T05:11:04.792Z,0.86
2018-12-19T05:12:04.784Z,0.83
2018-12-19T05:13:04.770Z,0.82
2018-12-19T05:14:04.763Z,0.85
2018-12-19T05:15:04.751Z,0.88
2018-12-19T05:16:04.736Z,0.90
2018-12-19T05:17:04.728Z,0.89
2018-12-19T05:18:04.715Z,0.94
2018-12-19T05:19:04.704Z,0.97
2018-12-19T05:20:04.693Z,0.85
2018-12-19T05:21:04.682Z,0.89
2018-12-19T05:22:04.671Z,0.90
2018-12-19T05:23:04.658Z,0.94
2018-12-19T05:24:04.648Z,0.92
2018-12-19T05:25:04.637Z,0.92
2018-12-19T05:26:04.627Z,0.97
2018-12-19T05:27:04.618Z,0.94
2018-12-19T05:28:04.606Z,0.89
2018-12-19T05:29:04.594Z,0.98
2018-12-19T05:30:04.584Z,0.92
2018-12-19T05:31:04.572Z,0.98
2018-12-19T05:32:04.561Z,1.00
2018-12-19T05:33:04.556Z,1.01
2018-12-19T05:34:04.541Z,1.01
2018-12-19T05:35:04.527Z,0.83
2018-12-19T05:36:04.518Z,1.01
2018-12-19T05:37:04.504Z,1.01
2018-12-19T05:38:04.494Z,1.01
2018-12-19T05:39:04.482Z,0.97
2018-12-19T05:41:31.442Z,1.00
2018-12-19T05:42:49.584Z,0.94
2018-12-19T05:44:12.971Z,1.01
2018-12-19T05:45:12.967Z,0.98
2018-12-19T05:46:12.948Z,0.97
2018-12-19T05:47:12.941Z,1.04
2018-12-19T05:48:12.932Z,1.00
2018-12-19T05:49:12.917Z,0.96
2018-12-19T05:50:12.906Z,1.01
2018-12-19T05:51:12.897Z,1.06
2018-12-19T05:52:12.884Z,1.07
2018-12-19T05:53:12.874Z,1.01
2018-12-19T05:54:12.862Z,0.97
2018-12-19T05:55:12.850Z,1.00
2018-12-19T05:56:12.842Z,0.94
2018-12-19T05:57:12.833Z,1.07
2018-12-19T05:58:12.818Z,0.94
2018-12-19T05:59:12.806Z,0.90
2018-12-19T06:00:12.795Z,1.00
2018-12-19T06:01:12.787Z,0.97
2018-12-19T06:02:12.772Z,1.03
2018-12-19T06:03:12.765Z,1.01
2018-12-19T06:04:12.756Z,1.01
2018-12-19T06:05:12.740Z,1.00
2018-12-19T06:06:12.729Z,1.00
2018-12-19T06:07:12.723Z,0.90
2018-12-19T06:08:12.725Z,1.01
2018-12-19T06:09:12.697Z,1.03
2018-12-19T06:10:12.686Z,0.97
2018-12-19T06:11:12.673Z,1.00
2018-12-19T06:12:12.665Z,1.08
2018-12-19T06:13:12.650Z,1.01
2018-12-19T06:14:12.643Z,0.98
2018-12-19T06:15:12.662Z,1.03
2018-12-19T06:16:12.620Z,1.08
2018-12-19T06:17:12.609Z,1.08
2018-12-19T06:18:12.596Z,1.07
2018-12-19T06:19:12.591Z,1.03
2018-12-19T06:20:12.575Z,1.07
2018-12-19T06:21:12.565Z,1.03
2018-12-19T06:22:12.553Z,0.98
2018-12-19T06:23:12.543Z,1.04
2018-12-19T06:24:12.533Z,1.01
2018-12-19T06:25:12.519Z,1.08
2018-12-19T06:26:12.511Z,1.06
2018-12-19T06:27:12.499Z,1.04
2018-12-19T06:28:12.487Z,1.06
2018-12-19T06:29:12.477Z,1.01
2018-12-19T06:30:12.465Z,1.06
2018-12-19T06:31:12.457Z,0.97
2018-12-19T06:32:12.442Z,0.97
2018-12-19T06:33:12.432Z,1.01
2018-12-19T06:34:12.422Z,1.01
2018-12-19T06:35:12.408Z,1.10
2018-12-19T06:36:12.400Z,1.03
2018-12-19T06:37:12.404Z,1.01
2018-12-19T06:38:12.377Z,0.98
2018-12-19T06:39:12.370Z,1.07
2018-12-19T06:40:12.357Z,1.12
2018-12-19T06:41:12.347Z,1.06
2018-12-19T06:42:12.332Z,1.00
2018-12-19T06:43:12.323Z,1.08
2018-12-19T06:44:12.312Z,1.15
2018-12-19T06:45:12.298Z,1.14
2018-12-19T06:46:12.292Z,1.06
2018-12-19T06:47:12.286Z,1.04
2018-12-19T06:48:12.266Z,1.07
2018-12-19T06:49:12.254Z,1.07
2018-12-19T06:50:12.243Z,1.08
2018-12-19T06:51:12.233Z,1.14
2018-12-19T06:52:12.222Z,1.07
2018-12-19T06:53:12.211Z,1.08
2018-12-19T06:54:12.199Z,1.26
2018-12-19T06:55:12.188Z,1.14
2018-12-19T06:56:12.177Z,1.08
2018-12-19T06:57:12.170Z,1.16
2018-12-19T06:58:12.155Z,1.14
2018-12-19T06:59:12.146Z,1.14
2018-12-19T07:00:12.141Z,1.07
2018-12-19T07:01:12.125Z,1.15
2018-12-19T07:02:12.111Z,1.16
2018-12-19T07:03:12.117Z,1.16
2018-12-19T07:04:12.089Z,1.10
2018-12-19T07:05:12.078Z,1.29
2018-12-19T07:06:12.068Z,1.33
2018-12-19T07:07:12.058Z,1.37
2018-12-19T07:08:12.044Z,1.50
2018-12-19T07:09:12.038Z,1.44
2018-12-19T07:10:12.024Z,1.58
2018-12-19T07:11:12.012Z,1.43
2018-12-19T07:12:12.055Z,1.47
2018-12-19T07:13:11.991Z,1.44
2018-12-19T07:14:11.980Z,1.40
2018-12-19T07:15:11.969Z,1.43
2018-12-19T07:16:11.962Z,1.50
2018-12-19T07:17:11.948Z,1.42
2018-12-19T07:18:11.937Z,1.50
2018-12-19T07:19:11.927Z,1.36
2018-12-19T07:20:11.913Z,1.43
2018-12-19T07:21:11.903Z,1.40
2018-12-19T07:22:11.891Z,1.29
2018-12-19T07:23:11.881Z,1.22
2018-12-19T07:24:11.870Z,1.26
2018-12-19T07:25:11.858Z,1.25
2018-12-19T07:26:11.853Z,1.21
2018-12-19T07:27:11.837Z,1.25
2018-12-19T07:28:11.826Z,1.25
2018-12-19T07:29:11.815Z,1.16
2018-12-19T07:30:11.803Z,1.24
2018-12-19T07:31:11.792Z,1.16
2018-12-19T07:32:11.781Z,1.16
2018-12-19T07:33:11.773Z,1.15
2018-12-19T07:34:11.761Z,1.14
2018-12-19T07:35:11.747Z,1.12
2018-12-19T07:36:11.740Z,1.15
2018-12-19T07:37:11.727Z,1.10
2018-12-19T07:38:11.714Z,1.14
2018-12-19T07:39:11.706Z,1.18
2018-12-19T07:40:11.693Z,1.19
2018-12-19T07:41:11.687Z,1.24
2018-12-19T07:42:11.670Z,1.16
2018-12-19T07:43:11.661Z,1.18
2018-12-19T07:44:11.650Z,1.19
2018-12-19T07:45:11.636Z,1.12
2018-12-19T07:46:11.626Z,1.18
2018-12-19T07:47:11.621Z,1.21
2018-12-19T07:48:11.607Z,1.19
2018-12-19T07:49:11.594Z,1.19
2018-12-19T07:50:11.582Z,1.19
2018-12-19T07:51:11.571Z,1.19
2018-12-19T07:52:11.563Z,1.21
2018-12-19T07:53:11.551Z,1.21
2018-12-19T07:54:11.540Z,1.28
2018-12-19T07:55:11.527Z,1.25
2018-12-19T07:56:11.527Z,1.24
2018-12-19T07:57:11.504Z,1.28
2018-12-19T07:58:11.495Z,1.25
2018-12-19T07:59:31.119Z,1.25
2018-12-19T08:00:53.524Z,1.33
2018-12-19T08:02:13.145Z,1.22
2018-12-19T08:03:35.548Z,1.29
2018-12-19T08:04:35.536Z,1.36
2018-12-19T08:05:35.525Z,1.39
2018-12-19T08:06:35.516Z,1.34
2018-12-19T08:07:35.505Z,1.32
2018-12-19T08:08:35.495Z,1.33
2018-12-19T08:09:35.482Z,1.37
2018-12-19T08:10:35.476Z,1.40
2018-12-19T08:11:35.465Z,1.29
2018-12-19T08:12:36.161Z,1.36
2018-12-19T08:13:35.442Z,1.36
2018-12-19T08:14:35.428Z,1.37
2018-12-19T08:15:35.420Z,1.39
2018-12-19T08:16:35.410Z,1.42
2018-12-19T08:17:35.396Z,1.40
2018-12-19T08:18:35.383Z,1.42
2018-12-19T08:19:35.373Z,1.42
2018-12-19T08:20:35.363Z,1.43
2018-12-19T08:21:35.361Z,1.40
2018-12-19T08:22:35.340Z,1.44
2018-12-19T08:23:35.329Z,1.50
2018-12-19T08:24:35.319Z,1.43
2018-12-19T08:25:35.307Z,1.46
2018-12-19T08:26:35.298Z,1.44
2018-12-19T08:27:35.286Z,1.40
2018-12-19T08:28:35.273Z,1.47
2018-12-19T08:29:35.263Z,1.52
2018-12-19T08:30:35.255Z,1.43
2018-12-19T08:31:35.243Z,1.44
2018-12-19T08:32:35.233Z,1.46
2018-12-19T08:33:35.219Z,1.42
2018-12-19T08:34:35.211Z,1.55
2018-12-19T08:35:35.200Z,1.47
2018-12-19T08:36:35.191Z,1.44
2018-12-19T08:37:35.179Z,1.46
2018-12-19T08:38:35.170Z,1.42
2018-12-19T08:39:35.157Z,1.42
2018-12-19T08:40:35.143Z,1.52
2018-12-19T08:41:35.133Z,1.51
2018-12-19T08:42:35.126Z,1.40
2018-12-19T08:43:35.112Z,1.60
2018-12-19T08:44:35.100Z,1.52
2018-12-19T08:45:35.094Z,1.64
2018-12-19T08:46:35.079Z,1.54
2018-12-19T08:47:35.066Z,1.57
2018-12-19T08:48:35.056Z,1.54
2018-12-19T08:49:35.048Z,1.54
2018-12-19T08:50:35.035Z,1.54
2018-12-19T08:51:35.023Z,1.51
2018-12-19T08:52:35.015Z,1.51
2018-12-19T08:53:35.003Z,1.62
2018-12-19T08:54:34.999Z,1.61
2018-12-19T08:55:34.983Z,1.55
2018-12-19T08:56:34.968Z,1.52
2018-12-19T08:57:34.961Z,1.51
2018-12-19T08:58:34.946Z,1.64
2018-12-19T08:59:34.941Z,1.61
2018-12-19T09:00:34.934Z,1.51
2018-12-19T09:01:34.914Z,1.64
2018-12-19T09:02:34.908Z,1.68
2018-12-19T09:03:34.897Z,1.64
2018-12-19T09:04:34.883Z,1.71
2018-12-19T09:05:34.870Z,1.76
2018-12-19T09:06:34.865Z,1.62
2018-12-19T09:07:34.851Z,1.78
2018-12-19T09:08:34.841Z,1.75
2018-12-19T09:09:34.828Z,1.80
2018-12-19T09:10:34.820Z,1.78
2018-12-19T09:11:34.806Z,1.75
2018-12-19T09:12:34.801Z,1.69
2018-12-19T09:13:34.785Z,1.83
2018-12-19T09:14:34.773Z,1.72
2018-12-19T09:15:34.765Z,1.68
2018-12-19T09:16:34.753Z,1.78
2018-12-19T09:17:35.837Z,1.78
2018-12-19T09:18:34.758Z,1.75
2018-12-19T09:19:34.721Z,1.75
2018-12-19T09:20:34.710Z,1.80
2018-12-19T09:21:34.697Z,1.76
2018-12-19T09:22:34.687Z,1.78
2018-12-19T09:23:34.678Z,1.76
2018-12-19T09:24:34.663Z,1.80
2018-12-19T09:25:34.652Z,1.76
2018-12-19T09:26:34.643Z,1.73
2018-12-19T09:27:34.632Z,1.80
2018-12-19T09:28:34.620Z,1.75
2018-12-19T09:29:34.609Z,1.65
2018-12-19T09:30:34.603Z,1.76
2018-12-19T09:31:34.588Z,1.78
2018-12-19T09:32:34.576Z,1.83
2018-12-19T09:33:34.568Z,1.79
2018-12-19T09:34:34.555Z,1.72
2018-12-19T09:35:34.544Z,1.78
2018-12-19T09:36:34.532Z,1.73
2018-12-19T09:37:34.522Z,1.82
2018-12-19T09:38:34.512Z,1.76
2018-12-19T09:39:34.503Z,1.76
2018-12-19T09:40:34.491Z,1.80
2018-12-19T09:41:34.480Z,1.75
2018-12-19T09:42:34.468Z,1.80
2018-12-19T09:43:34.457Z,1.75
2018-12-19T09:44:34.450Z,1.75
2018-12-19T09:45:34.439Z,1.76
2018-12-19T09:46:34.426Z,1.85
2018-12-19T09:47:34.418Z,1.79
2018-12-19T09:48:34.402Z,1.73
2018-12-19T09:49:34.392Z,1.78
2018-12-19T09:50:34.386Z,1.79
2018-12-19T09:51:34.372Z,1.87
2018-12-19T09:52:34.365Z,1.75
2018-12-19T09:53:34.356Z,1.78
2018-12-19T09:54:34.338Z,1.79
2018-12-19T09:55:34.329Z,1.82
2018-12-19T09:56:34.314Z,1.90
2018-12-19T09:57:34.303Z,1.89
2018-12-19T09:58:34.297Z,1.93
2018-12-19T09:59:34.284Z,1.98
2018-12-19T10:00:34.273Z,1.91
2018-12-19T10:01:34.261Z,1.87
2018-12-19T10:02:34.250Z,1.90
2018-12-19T10:03:34.243Z,1.90
2018-12-19T10:04:34.240Z,1.97
2018-12-19T10:05:34.219Z,1.97
2018-12-19T10:06:34.208Z,1.99
2018-12-19T10:07:34.196Z,1.91
2018-12-19T10:08:34.187Z,1.91
2018-12-19T10:09:34.176Z,1.99
2018-12-19T10:10:34.167Z,1.93
2018-12-19T10:11:34.154Z,1.98
2018-12-19T10:12:34.142Z,2.02
2018-12-19T10:13:34.129Z,2.06
2018-12-19T10:14:34.120Z,2.01
2018-12-19T10:15:34.108Z,1.98
2018-12-19T10:16:34.098Z,2.02
2018-12-19T10:17:34.088Z,2.08
2018-12-19T10:18:34.080Z,2.06
2018-12-19T10:19:34.065Z,2.09
2018-12-19T10:20:34.055Z,2.06
2018-12-19T10:21:34.044Z,2.06
2018-12-19T10:22:34.032Z,2.16
2018-12-19T10:23:34.023Z,2.19
2018-12-19T10:24:34.011Z,2.22
2018-12-19T10:25:34.004Z,2.20
2018-12-19T10:26:33.992Z,2.23
2018-12-19T10:27:33.981Z,2.22
2018-12-19T10:28:33.968Z,2.28
2018-12-19T10:29:33.957Z,2.33
2018-12-19T10:30:33.946Z,2.30
2018-12-19T10:31:33.934Z,2.34
2018-12-19T10:32:33.925Z,2.35
2018-12-19T10:33:33.914Z,2.38
2018-12-19T10:34:33.903Z,2.38
2018-12-19T10:35:33.900Z,2.46
2018-12-19T10:36:33.884Z,2.46
2018-12-19T10:37:33.877Z,2.48
2018-12-19T10:38:33.860Z,2.40
2018-12-19T10:39:33.848Z,2.49
2018-12-19T10:40:33.840Z,2.49
2018-12-19T10:41:33.826Z,2.45
2018-12-19T10:42:33.814Z,2.46
2018-12-19T10:43:33.806Z,2.51
2018-12-19T10:44:33.792Z,2.52
2018-12-19T10:45:33.783Z,2.51
2018-12-19T10:46:33.770Z,2.58
2018-12-19T10:47:33.760Z,2.48
2018-12-19T10:48:33.751Z,2.53
2018-12-19T10:49:33.741Z,2.53
2018-12-19T10:50:33.727Z,2.55
2018-12-19T10:51:33.719Z,2.52
2018-12-19T10:52:33.705Z,2.59
2018-12-19T10:53:33.876Z,2.53
2018-12-19T10:54:33.682Z,2.56
2018-12-19T10:55:33.673Z,2.61
2018-12-19T10:56:33.660Z,2.48
2018-12-19T10:57:33.651Z,2.52
2018-12-19T10:58:33.638Z,2.55
2018-12-19T10:59:33.627Z,2.48
2018-12-19T11:00:33.617Z,2.46
2018-12-19T11:01:33.606Z,2.56
2018-12-19T11:02:33.601Z,2.59
2018-12-19T11:03:33.583Z,2.48
2018-12-19T11:04:33.573Z,2.53
2018-12-19T11:05:33.563Z,2.63
2018-12-19T11:06:33.550Z,2.55
2018-12-19T11:07:33.541Z,2.52
2018-12-19T11:08:33.538Z,2.52
2018-12-19T11:09:33.517Z,2.58
2018-12-19T11:10:33.505Z,2.55
2018-12-19T11:11:33.497Z,2.66
2018-12-19T11:12:33.483Z,2.69
2018-12-19T11:13:33.474Z,2.63
2018-12-19T11:14:33.461Z,2.70
2018-12-19T11:15:33.452Z,2.67
2018-12-19T11:16:33.441Z,2.66
2018-12-19T11:17:33.428Z,2.76
2018-12-19T11:18:33.419Z,2.76
2018-12-19T11:19:33.408Z,2.79
2018-12-19T11:20:33.398Z,2.82
2018-12-19T11:21:33.384Z,2.85
2018-12-19T11:22:33.374Z,2.92
2018-12-19T11:23:33.365Z,3.00
2018-12-19T11:24:33.355Z,2.94
2018-12-19T11:25:33.343Z,2.85
2018-12-19T11:26:33.331Z,2.88
2018-12-19T11:27:33.319Z,2.98
2018-12-19T11:28:33.311Z,2.91
2018-12-19T11:29:33.296Z,2.97
2018-12-19T11:30:33.285Z,2.81
2018-12-19T11:31:33.283Z,2.95
2018-12-19T11:32:33.263Z,2.85
2018-12-19T11:33:33.260Z,2.95
2018-12-19T11:34:33.242Z,2.98
2018-12-19T11:35:33.230Z,2.91
2018-12-19T11:36:33.224Z,2.94
2018-12-19T11:37:33.211Z,2.98
2018-12-19T11:38:33.198Z,2.92
2018-12-19T11:39:33.185Z,2.94
2018-12-19T11:40:33.174Z,2.98
2018-12-19T11:41:38.817Z,2.94
2018-12-19T11:42:34.155Z,2.97
2018-12-19T11:43:33.147Z,2.94
2018-12-19T11:44:33.130Z,2.92
2018-12-19T11:45:33.118Z,2.92
2018-12-19T11:46:33.107Z,2.98
2018-12-19T11:47:33.099Z,3.05
2018-12-19T11:48:33.085Z,3.02
2018-12-19T11:49:33.074Z,3.00
2018-12-19T11:50:33.066Z,3.00
2018-12-19T11:51:33.054Z,2.97
2018-12-19T11:52:33.042Z,3.02
2018-12-19T11:53:33.034Z,2.98
2018-12-19T11:54:33.024Z,3.05
2018-12-19T11:55:33.016Z,2.87
2018-12-19T11:56:33.001Z,2.84
2018-12-19T11:57:34.388Z,2.84
2018-12-19T11:58:32.978Z,2.84
2018-12-19T11:59:32.965Z,2.84
2018-12-19T12:00:32.954Z,2.95
2018-12-19T12:01:32.945Z,2.89
2018-12-19T12:02:32.931Z,2.89
2018-12-19T12:03:32.919Z,2.84
2018-12-19T12:04:32.909Z,2.85
2018-12-19T12:05:32.901Z,2.82
2018-12-19T12:06:32.891Z,2.81
2018-12-19T12:07:32.875Z,2.84
2018-12-19T12:08:32.864Z,2.85
2018-12-19T12:09:32.854Z,2.79
2018-12-19T12:10:32.843Z,2.79
2018-12-19T12:11:32.831Z,2.81
2018-12-19T12:12:32.819Z,2.87
2018-12-19T12:13:32.807Z,2.84
2018-12-19T12:14:32.800Z,2.82
2018-12-19T12:15:32.786Z,2.87
2018-12-19T12:16:32.775Z,2.85
2018-12-19T12:17:32.767Z,2.77
2018-12-19T12:18:32.752Z,2.76
2018-12-19T12:19:32.750Z,2.71
2018-12-19T12:20:32.731Z,2.73
2018-12-19T12:21:32.719Z,2.73
2018-12-19T12:22:32.710Z,2.81
2018-12-19T12:23:32.700Z,2.81
2018-12-19T12:24:32.688Z,2.85
2018-12-19T12:25:32.679Z,2.81
2018-12-19T12:26:32.665Z,2.87
2018-12-19T12:27:32.715Z,2.97
2018-12-19T12:28:32.650Z,2.98
2018-12-19T12:29:32.631Z,2.98
2018-12-19T12:30:32.624Z,2.94
2018-12-19T12:31:32.611Z,2.98
2018-12-19T12:32:32.605Z,2.95
2018-12-19T12:33:32.596Z,2.94
2018-12-19T12:34:32.577Z,3.03
2018-12-19T12:35:32.568Z,3.00
2018-12-19T12:36:32.554Z,2.94
2018-12-19T12:37:32.545Z,2.97
2018-12-19T12:38:53.179Z,2.94
2018-12-19T12:40:14.649Z,3.02
2018-12-19T12:44:11.457Z,2.97
2018-12-19T12:45:11.443Z,2.97
2018-12-19T12:46:11.433Z,2.92
2018-12-19T12:47:11.423Z,2.87
2018-12-19T12:48:11.410Z,2.84
2018-12-19T12:49:11.402Z,2.87
2018-12-19T12:50:11.390Z,2.97
2018-12-19T12:51:11.381Z,2.87
2018-12-19T12:52:11.366Z,2.97
2018-12-19T12:53:11.359Z,2.94
2018-12-19T12:54:11.347Z,2.95
2018-12-19T12:55:11.339Z,2.91
2018-12-19T12:56:11.325Z,2.92
2018-12-19T12:57:11.315Z,2.92
2018-12-19T12:58:11.303Z,3.02
2018-12-19T12:59:11.294Z,2.98
2018-12-19T13:00:11.283Z,2.98
2018-12-19T13:01:11.270Z,3.05
2018-12-19T13:02:11.260Z,3.09
2018-12-19T13:03:11.249Z,3.09
2018-12-19T13:04:11.238Z,3.09
2018-12-19T13:05:11.226Z,3.15
2018-12-19T13:06:11.218Z,3.16
2018-12-19T13:07:11.208Z,3.10
2018-12-19T13:08:11.194Z,3.07
2018-12-19T13:09:11.181Z,3.15
2018-12-19T13:10:11.172Z,3.10
2018-12-19T13:11:11.159Z,3.12
2018-12-19T13:12:11.149Z,3.12
2018-12-19T13:13:11.138Z,3.10
2018-12-19T13:14:11.127Z,3.15
2018-12-19T13:15:11.114Z,3.16
2018-12-19T13:16:11.108Z,3.16
2018-12-19T13:17:11.093Z,3.13
2018-12-19T13:18:11.083Z,3.07
2018-12-19T13:19:11.071Z,3.18
2018-12-19T13:20:11.063Z,3.09
2018-12-19T13:21:11.050Z,3.13
2018-12-19T13:22:12.400Z,3.15
2018-12-19T13:23:11.028Z,3.13
2018-12-19T13:24:11.016Z,3.13
2018-12-19T13:25:11.007Z,3.10
2018-12-19T13:26:10.993Z,3.15
2018-12-19T13:27:10.984Z,3.12
2018-12-19T13:28:10.974Z,3.07
2018-12-19T13:29:10.962Z,3.13